Time;durP1;ratioP1;P1;durP2;ratioP2;P2;SDS_P1;SDS_P2;PMS_P1;PMS_P2;Temp;Humidity;BMP_temperature;BMP_pressure;BME280_temperature;BME280_humidity;BME280_pressure;Samples;Min_cycle;Max_cycle;Signal;HPM_P1;HPM_P2
2021/01/28 00:00:36;;;;;;;4.13;3.38;;;15.30;77.20;;;;;;4199375;28;20041;-73
2021/01/28 00:02:38;;;;;;;2.80;2.38;;;15.10;76.70;;;;;;4198961;28;20040;-73
2021/01/28 00:04:39;;;;;;;3.47;3.17;;;15.30;75.60;;;;;;4199267;28;20045;-73
2021/01/28 00:06:41;;;;;;;4.90;3.55;;;14.80;78.90;;;;;;4199564;28;20048;-73
2021/01/28 00:08:45;;;;;;;7.00;5.70;;;15.10;77.50;;;;;;4199302;28;20099;-73
2021/01/28 00:10:47;;;;;;;3.72;2.53;;;14.90;80.50;;;;;;4198842;28;20044;-73
2021/01/28 00:12:49;;;;;;;5.60;3.90;;;14.90;77.40;;;;;;4181538;28;20418;-73
2021/01/28 00:14:51;;;;;;;3.85;3.08;;;14.80;79.50;;;;;;4199334;28;20040;-73
2021/01/28 00:16:53;;;;;;;8.52;5.10;;;14.90;79.50;;;;;;4199414;28;20536;-73
2021/01/28 00:18:55;;;;;;;7.25;4.60;;;14.70;82.10;;;;;;4200132;28;20075;-73
2021/01/28 00:20:56;;;;;;;3.72;2.72;;;14.60;81.00;;;;;;4199824;28;20048;-73
2021/01/28 00:22:58;;;;;;;4.18;3.15;;;14.80;79.70;;;;;;4199979;28;20051;-72
2021/01/28 00:25:00;;;;;;;4.57;3.80;;;14.80;82.20;;;;;;4198703;28;20098;-73
2021/01/28 00:27:03;;;;;;;3.13;2.67;;;14.60;83.40;;;;;;4198975;28;20045;-73
2021/01/28 00:29:05;;;;;;;3.75;3.33;;;14.70;80.20;;;;;;4212974;28;20052;-73
2021/01/28 00:31:08;;;;;;;3.63;2.88;;;14.90;82.10;;;;;;4217598;28;20048;-74
2021/01/28 00:33:12;;;;;;;5.40;3.83;;;14.80;80.80;;;;;;4210325;28;20044;-72
2021/01/28 00:35:15;;;;;;;3.97;3.05;;;14.80;82.00;;;;;;4199239;28;20076;-73
2021/01/28 00:37:17;;;;;;;2.58;2.38;;;14.70;83.20;;;;;;4199081;28;20049;-73
2021/01/28 00:39:19;;;;;;;3.88;3.00;;;14.70;80.70;;;;;;4198933;28;20048;-73
2021/01/28 00:41:20;;;;;;;2.85;2.55;;;14.70;82.90;;;;;;4198277;28;20055;-73
2021/01/28 00:43:23;;;;;;;2.40;1.65;;;14.70;81.10;;;;;;4198325;28;20102;-73
2021/01/28 00:45:28;;;;;;;2.60;2.15;;;14.60;81.00;;;;;;4198608;28;20466;-73
2021/01/28 00:47:30;;;;;;;4.50;3.80;;;14.60;83.80;;;;;;4198181;28;20045;-72
2021/01/28 00:49:32;;;;;;;2.33;1.95;;;14.60;84.80;;;;;;4198599;28;20049;-73
2021/01/28 00:51:33;;;;;;;2.35;2.05;;;14.50;83.50;;;;;;4180405;28;20045;-73
2021/01/28 00:53:35;;;;;;;3.28;2.65;;;14.40;83.70;;;;;;4198405;28;20481;-74
2021/01/28 00:55:37;;;;;;;2.20;1.98;;;14.60;85.20;;;;;;4198268;28;20139;-73
2021/01/28 00:57:38;;;;;;;2.20;1.98;;;14.50;82.90;;;;;;4198007;28;20044;-73
2021/01/28 00:59:41;;;;;;;2.08;1.63;;;14.80;82.00;;;;;;4180363;28;20052;-73
2021/01/28 01:01:42;;;;;;;2.97;2.47;;;14.70;82.10;;;;;;4198227;28;20048;-73
2021/01/28 01:03:45;;;;;;;1.67;1.50;;;14.80;83.70;;;;;;4198233;28;20045;-72
2021/01/28 01:05:49;;;;;;;3.10;1.73;;;14.60;83.10;;;;;;4198435;28;20106;-73
2021/01/28 01:07:51;;;;;;;3.22;2.72;;;14.70;81.00;;;;;;4198022;28;20045;-73
2021/01/28 01:09:52;;;;;;;1.40;1.27;;;14.80;83.20;;;;;;4198171;28;20172;-73
2021/01/28 01:11:55;;;;;;;1.67;1.08;;;15.00;80.60;;;;;;4202767;28;20052;-72
2021/01/28 01:13:56;;;;;;;2.78;2.38;;;15.00;81.60;;;;;;4203942;28;20044;-74
2021/01/28 01:16:00;;;;;;;2.25;2.05;;;14.60;84.70;;;;;;4202109;28;20079;-73
2021/01/28 01:18:03;;;;;;;2.63;1.90;;;14.60;84.40;;;;;;4204318;28;20052;-74
2021/01/28 01:20:06;;;;;;;2.35;1.83;;;14.50;82.80;;;;;;4205523;28;20047;-73
2021/01/28 01:22:08;;;;;;;5.25;2.83;;;15.00;83.30;;;;;;4202460;28;20056;-74
2021/01/28 01:24:11;;;;;;;2.53;2.33;;;14.70;84.10;;;;;;4202949;28;20067;-73
2021/01/28 01:26:13;;;;;;;2.38;2.17;;;14.50;84.00;;;;;;4200127;28;20067;-73
2021/01/28 01:28:15;;;;;;;3.08;2.05;;;14.60;83.70;;;;;;4205975;28;20059;-74
2021/01/28 01:30:21;;;;;;;3.67;3.00;;;14.60;84.20;;;;;;4214829;28;20040;-73
2021/01/28 01:32:24;;;;;;;2.95;2.03;;;14.60;85.50;;;;;;4215859;28;20059;-73
2021/01/28 01:34:26;;;;;;;1.85;1.58;;;14.50;83.90;;;;;;4201688;28;20040;-73
2021/01/28 01:36:28;;;;;;;2.45;1.83;;;14.80;82.10;;;;;;4200858;28;20404;-73
2021/01/28 01:38:29;;;;;;;1.33;1.20;;;14.80;81.50;;;;;;4198799;28;20131;-73
2021/01/28 01:40:34;;;;;;;1.85;1.45;;;14.90;80.30;;;;;;4198522;28;20056;-73
2021/01/28 01:42:36;;;;;;;2.75;1.30;;;14.80;83.70;;;;;;4197632;28;20049;-73
2021/01/28 01:44:37;;;;;;;1.67;1.58;;;15.00;79.70;;;;;;4197601;28;20463;-73
2021/01/28 01:46:39;;;;;;;2.55;1.40;;;15.10;82.00;;;;;;4197945;28;20054;-72
2021/01/28 01:48:49;;;;;;;1.30;1.20;;;15.00;81.30;;;;;;4198300;28;20113;-73
2021/01/28 01:50:56;;;;;;;1.45;1.25;;;14.70;84.40;;;;;;4198376;28;20059;-73
2021/01/28 01:53:00;;;;;;;2.15;0.95;;;14.40;86.90;;;;;;4198110;28;20098;-73
2021/01/28 01:55:03;;;;;;;1.45;1.05;;;14.60;82.70;;;;;;4198480;28;20066;-72
2021/01/28 01:57:10;;;;;;;1.20;1.08;;;14.80;82.90;;;;;;4198079;28;20437;-73
2021/01/28 01:59:16;;;;;;;1.10;1.00;;;14.80;83.70;;;;;;4196963;28;20334;-73
2021/01/28 02:01:21;;;;;;;1.00;0.90;;;14.80;84.30;;;;;;4197050;28;20052;-73
2021/01/28 02:03:25;;;;;;;2.97;0.80;;;14.90;82.30;;;;;;4196651;28;20050;-74
2021/01/28 02:05:32;;;;;;;0.93;0.80;;;14.80;82.90;;;;;;4197173;28;20044;-73
2021/01/28 02:07:33;;;;;;;0.95;0.75;;;14.80;81.90;;;;;;4196867;28;20538;-73
2021/01/28 02:09:35;;;;;;;1.45;0.70;;;14.90;85.00;;;;;;4195918;28;20052;-73
2021/01/28 02:11:38;;;;;;;4.10;0.90;;;14.80;84.80;;;;;;4196675;28;20052;-73
2021/01/28 02:13:41;;;;;;;2.63;0.90;;;15.00;84.10;;;;;;4196989;28;20045;-73
2021/01/28 02:15:43;;;;;;;0.82;0.65;;;14.80;87.10;;;;;;4196767;28;20401;-75
2021/01/28 02:17:50;;;;;;;0.63;0.60;;;14.90;83.30;;;;;;4196398;28;20050;-74
2021/01/28 02:20:27;;;;;;;1.13;0.63;;;14.90;83.70;;;;;;4196541;28;20198;-74
2021/01/28 02:22:38;;;;;;;0.50;0.50;;;15.00;81.60;;;;;;4162432;28;20136;-74
2021/01/28 02:24:48;;;;;;;0.95;0.95;;;15.00;82.50;;;;;;4196331;28;20113;-74
2021/01/28 02:26:51;;;;;;;1.95;0.75;;;14.70;86.50;;;;;;4196364;28;20060;-74
2021/01/28 02:28:53;;;;;;;0.60;0.60;;;15.10;81.70;;;;;;4208622;28;20051;-74
2021/01/28 02:30:58;;;;;;;2.63;0.60;;;15.10;83.80;;;;;;4213380;28;20048;-74
2021/01/28 02:33:01;;;;;;;2.25;0.60;;;14.90;84.70;;;;;;4208036;28;20040;-74
2021/01/28 02:35:03;;;;;;;0.90;0.70;;;15.00;82.50;;;;;;4196622;28;20052;-75
2021/01/28 02:37:12;;;;;;;0.50;0.40;;;14.90;85.00;;;;;;4197062;28;20485;-73
2021/01/28 02:39:17;;;;;;;0.52;0.40;;;14.80;86.20;;;;;;4196907;28;20394;-73
2021/01/28 02:41:18;;;;;;;0.80;0.70;;;15.00;82.00;;;;;;4196982;28;20110;-72
2021/01/28 02:43:21;;;;;;;0.40;0.40;;;14.80;84.10;;;;;;4196769;28;20463;-73
2021/01/28 02:45:27;;;;;;;0.50;0.50;;;15.00;81.60;;;;;;4196895;28;20283;-72
2021/01/28 02:47:29;;;;;;;1.42;0.82;;;15.20;83.50;;;;;;4196353;28;20053;-72
2021/01/28 02:49:31;;;;;;;2.45;1.30;;;14.80;85.50;;;;;;4196259;28;20071;-72
2021/01/28 02:51:32;;;;;;;2.13;1.05;;;14.60;87.80;;;;;;4196347;28;20393;-72
2021/01/28 02:53:39;;;;;;;1.67;0.55;;;14.60;86.50;;;;;;4196388;28;20078;-73
2021/01/28 02:55:41;;;;;;;1.95;1.60;;;15.20;82.10;;;;;;4196015;28;20056;-73
2021/01/28 02:57:43;;;;;;;1.45;0.70;;;15.00;86.30;;;;;;4196120;28;20475;-73
2021/01/28 02:59:46;;;;;;;2.33;1.20;;;15.10;83.40;;;;;;4195788;28;20054;-73
2021/01/28 03:01:47;;;;;;;3.72;0.80;;;15.20;81.50;;;;;;4195914;28;20048;-73
2021/01/28 03:03:50;;;;;;;3.40;2.00;;;15.30;82.00;;;;;;4195702;28;20098;-73
2021/01/28 03:05:52;;;;;;;1.10;1.00;;;15.00;85.50;;;;;;4195922;28;20582;-73
2021/01/28 03:07:54;;;;;;;3.08;2.38;;;15.30;83.10;;;;;;4195745;28;20254;-73
2021/01/28 03:09:55;;;;;;;1.70;1.50;;;15.00;85.80;;;;;;4195961;28;20463;-73
2021/01/28 03:11:57;;;;;;;2.03;1.75;;;15.20;84.20;;;;;;4177910;28;20041;-73
2021/01/28 03:13:59;;;;;;;5.30;2.40;;;15.00;86.00;;;;;;4195774;28;20052;-73
2021/01/28 03:16:02;;;;;;;4.47;3.17;;;14.90;87.30;;;;;;4195936;28;20052;-72
2021/01/28 03:18:05;;;;;;;1.63;0.70;;;14.50;89.10;;;;;;4195832;28;20047;-73
2021/01/28 03:20:09;;;;;;;1.85;1.33;;;14.90;83.30;;;;;;4195723;28;20451;-73
2021/01/28 03:22:11;;;;;;;7.68;2.83;;;15.20;82.10;;;;;;4196271;28;20043;-72
2021/01/28 03:24:14;;;;;;;3.72;2.88;;;15.20;86.10;;;;;;4195223;28;20078;-72
2021/01/28 03:26:16;;;;;;;5.57;3.50;;;15.00;86.50;;;;;;4195768;28;20098;-75
2021/01/28 03:28:18;;;;;;;6.45;3.53;;;15.20;85.30;;;;;;4202820;28;20052;-73
2021/01/28 03:30:23;;;;;;;2.70;2.10;;;15.10;86.80;;;;;;4212699;28;20044;-72
2021/01/28 03:32:25;;;;;;;6.75;4.18;;;15.20;85.10;;;;;;4212378;28;20048;-73
2021/01/28 03:34:27;;;;;;;2.00;1.60;;;15.00;85.60;;;;;;4196665;28;20456;-74
2021/01/28 03:36:28;;;;;;;5.28;3.80;;;15.20;82.40;;;;;;4196232;28;20053;-74
2021/01/28 03:38:30;;;;;;;2.50;2.20;;;15.10;85.20;;;;;;4196369;28;20052;-73
2021/01/28 03:40:32;;;;;;;4.05;2.78;;;15.20;84.80;;;;;;4197370;28;20047;-73
2021/01/28 03:42:34;;;;;;;3.88;2.97;;;15.10;85.50;;;;;;4196906;28;20456;-72
2021/01/28 03:44:37;;;;;;;5.25;2.55;;;15.10;86.70;;;;;;4196310;28;20049;-73
2021/01/28 03:46:39;;;;;;;5.68;3.92;;;15.20;84.90;;;;;;4197183;28;20478;-72
2021/01/28 03:48:42;;;;;;;11.00;6.43;;;15.30;86.60;;;;;;4197271;28;20136;-75
2021/01/28 03:50:45;;;;;;;3.83;3.17;;;14.80;90.30;;;;;;4198066;28;20052;-75
2021/01/28 03:52:46;;;;;;;4.50;2.95;;;14.80;87.90;;;;;;4197630;28;20489;-73
2021/01/28 03:54:48;;;;;;;4.00;2.85;;;14.80;88.70;;;;;;4201468;28;20052;-75
2021/01/28 03:56:50;;;;;;;6.57;3.40;;;15.20;86.30;;;;;;4201238;28;20410;-76
2021/01/28 03:58:51;;;;;;;5.28;3.45;;;15.30;84.90;;;;;;4203474;28;20082;-74
2021/01/28 04:00:53;;;;;;;3.75;3.10;;;15.20;85.90;;;;;;4198999;28;20102;-75
2021/01/28 04:02:55;;;;;;;9.90;3.20;;;15.30;84.40;;;;;;4179711;28;20048;-74
2021/01/28 04:04:57;;;;;;;5.57;4.40;;;15.20;87.50;;;;;;4197355;28;20044;-75
2021/01/28 04:06:59;;;;;;;4.53;2.65;;;14.90;89.20;;;;;;4197357;28;20059;-74
2021/01/28 04:09:01;;;;;;;7.57;5.32;;;15.00;87.10;;;;;;4197223;28;20397;-75
2021/01/28 04:11:03;;;;;;;7.25;4.90;;;15.10;89.50;;;;;;4197374;28;20048;-75
2021/01/28 04:13:07;;;;;;;1.60;1.50;;;15.00;89.00;;;;;;4197228;28;20382;-75
2021/01/28 04:15:11;;;;;;;6.40;5.40;;;15.40;82.50;;;;;;4197120;28;20052;-74
2021/01/28 04:17:13;;;;;;;4.97;3.90;;;15.40;88.40;;;;;;4197177;28;20049;-74
2021/01/28 04:19:14;;;;;;;4.32;2.95;;;15.30;87.40;;;;;;4197762;28;20056;-75
2021/01/28 04:21:17;;;;;;;7.38;4.50;;;15.30;86.30;;;;;;4197026;28;20045;-73
2021/01/28 04:23:19;;;;;;;6.78;3.72;;;15.10;87.30;;;;;;4195428;28;20052;-73
2021/01/28 04:25:20;;;;;;;7.05;3.97;;;15.40;87.00;;;;;;4194874;28;20056;-74
2021/01/28 04:27:22;;;;;;;3.00;1.75;;;15.20;86.80;;;;;;4194926;28;20068;-74
2021/01/28 04:29:24;;;;;;;5.90;3.28;;;15.50;83.90;;;;;;4211303;28;20048;-74
2021/01/28 04:31:26;;;;;;;7.10;4.82;;;15.30;86.10;;;;;;4211973;28;20210;-74
2021/01/28 04:33:27;;;;;;;3.70;2.70;;;15.30;87.30;;;;;;4214280;28;20447;-74
2021/01/28 04:35:29;;;;;;;5.45;3.90;;;15.20;86.40;;;;;;4214701;28;20044;-74
2021/01/28 04:37:32;;;;;;;7.13;3.90;;;15.20;85.80;;;;;;4214721;28;20056;-74
2021/01/28 04:39:33;;;;;;;6.30;4.45;;;15.40;86.30;;;;;;4196663;28;20051;-74
2021/01/28 04:41:36;;;;;;;8.07;4.15;;;15.40;88.50;;;;;;4214790;28;20075;-74
2021/01/28 04:43:39;;;;;;;4.75;3.30;;;15.30;88.30;;;;;;4215485;28;20056;-73
2021/01/28 04:45:40;;;;;;;5.72;4.47;;;15.40;87.60;;;;;;4215157;28;20048;-74
2021/01/28 04:47:48;;;;;;;3.83;2.70;;;15.30;88.80;;;;;;4215331;28;20052;-74
2021/01/28 04:49:55;;;;;;;6.38;3.65;;;15.30;87.70;;;;;;4215211;28;20044;-75
2021/01/28 04:52:01;;;;;;;5.65;3.38;;;15.20;89.70;;;;;;4215493;28;20052;-74
2021/01/28 04:54:09;;;;;;;5.80;3.33;;;15.30;88.60;;;;;;4215196;28;20094;-73
2021/01/28 04:56:14;;;;;;;5.47;3.50;;;15.40;87.20;;;;;;4214820;28;20044;-74
2021/01/28 04:58:16;;;;;;;;;;;15.20;89.90;;;;;;4215527;28;20207;-74
2021/01/28 05:00:18;;;;;;;4.22;2.78;;;15.30;88.80;;;;;;4214653;28;19973;-75
2021/01/28 05:02:23;;;;;;;4.35;2.08;;;15.00;90.20;;;;;;4214555;28;20121;-74
2021/01/28 05:04:32;;;;;;;3.22;1.95;;;14.70;91.10;;;;;;4214909;28;20052;-72
2021/01/28 05:06:34;;;;;;;2.97;2.22;;;14.80;91.60;;;;;;4214470;28;20044;-74
2021/01/28 05:08:35;;;;;;;1.52;1.10;;;14.60;91.70;;;;;;4214488;28;20048;-74
2021/01/28 05:10:44;;;;;;;3.45;2.33;;;14.90;88.70;;;;;;4214201;28;20090;-74
2021/01/28 05:12:54;;;;;;;2.85;2.55;;;15.10;90.60;;;;;;4214349;28;20056;-74
2021/01/28 05:15:12;;;;;;;3.95;2.10;;;15.10;90.40;;;;;;4214414;28;20055;-74
2021/01/28 05:17:20;;;;;;;1.75;1.38;;;15.20;87.10;;;;;;4214045;28;20056;-73
2021/01/28 05:19:38;;;;;;;5.50;1.70;;;15.40;90.00;;;;;;4214268;28;20051;-73
2021/01/28 05:21:42;;;;;;;4.22;1.95;;;15.20;90.50;;;;;;4214394;28;20097;-74
2021/01/28 05:23:46;;;;;;;2.28;1.27;;;15.00;91.00;;;;;;4213945;28;20048;-74
2021/01/28 05:25:48;;;;;;;1.67;1.13;;;15.00;88.70;;;;;;4197152;28;20053;-73
2021/01/28 05:27:50;;;;;;;7.35;1.80;;;14.80;91.20;;;;;;4200468;28;20477;-74
2021/01/28 05:29:53;;;;;;;4.32;1.45;;;14.30;93.30;;;;;;4214034;28;20048;-73
2021/01/28 05:31:58;;;;;;;4.65;2.00;;;14.40;91.40;;;;;;4213886;28;20040;-73
2021/01/28 05:34:09;;;;;;;1.95;1.02;;;14.10;92.80;;;;;;4200370;28;20128;-74
2021/01/28 05:36:16;;;;;;;2.33;1.70;;;14.30;91.60;;;;;;4197221;28;20094;-74
2021/01/28 05:38:27;;;;;;;2.50;1.27;;;14.00;92.80;;;;;;4197470;28;20052;-75
2021/01/28 05:40:29;;;;;;;4.35;1.30;;;14.10;93.30;;;;;;4197493;28;20524;-74
2021/01/28 05:42:32;;;;;;;2.85;0.98;;;14.40;91.70;;;;;;4197983;28;20045;-74
2021/01/28 05:44:38;;;;;;;5.90;1.50;;;14.20;91.80;;;;;;4198422;28;20048;-72
2021/01/28 05:46:39;;;;;;;2.70;1.40;;;14.00;93.60;;;;;;4180765;28;20090;-73
2021/01/28 05:48:42;;;;;;;2.60;1.30;;;14.00;93.70;;;;;;4198858;28;20064;-73
2021/01/28 05:50:45;;;;;;;2.42;1.40;;;14.10;93.00;;;;;;4198894;28;20106;-74
2021/01/28 05:52:47;;;;;;;4.10;1.33;;;13.90;93.80;;;;;;4198707;28;20451;-75
2021/01/28 05:55:09;;;;;;;3.50;1.42;;;14.20;92.30;;;;;;4196920;28;20044;-73
2021/01/28 05:57:27;;;;;;;3.97;1.70;;;14.30;93.20;;;;;;4196930;28;20045;-74
2021/01/28 05:59:39;;;;;;;4.68;1.65;;;14.00;93.80;;;;;;4196793;28;20053;-74
2021/01/28 06:01:54;;;;;;;5.47;1.10;;;14.10;93.70;;;;;;4197014;28;20473;-73
2021/01/28 06:04:22;;;;;;;2.75;1.13;;;14.10;93.40;;;;;;4196789;28;20494;-74
2021/01/28 06:06:55;;;;;;;3.85;1.20;;;14.30;93.20;;;;;;4196621;28;20508;-74
2021/01/28 06:09:15;;;;;;;3.88;0.80;;;14.40;92.70;;;;;;4175934;28;20041;-73
2021/01/28 06:11:55;;;;;;;4.88;1.23;;;14.30;92.00;;;;;;4197179;28;20049;-73
2021/01/28 06:14:22;;;;;;;1.25;1.13;;;14.10;93.40;;;;;;4196738;28;20048;-73
2021/01/28 06:16:35;;;;;;;4.05;0.73;;;13.90;94.20;;;;;;4195747;28;20063;-73
2021/01/28 06:19:03;;;;;;;4.32;0.98;;;14.00;93.20;;;;;;4196963;28;20087;-74
2021/01/28 06:21:30;;;;;;;2.22;1.00;;;13.80;94.60;;;;;;4197023;28;20041;-73
2021/01/28 06:24:01;;;;;;;2.15;1.00;;;13.70;95.20;;;;;;4196726;28;20052;-73
2021/01/28 06:26:10;;;;;;;6.07;1.42;;;13.90;94.60;;;;;;4177509;28;20057;-73
2021/01/28 06:29:06;;;;;;;3.50;1.17;;;14.20;93.90;;;;;;4197775;28;20055;-74
2021/01/28 06:31:19;;;;;;;3.25;1.00;;;14.40;92.80;;;;;;4213542;28;20067;-74
2021/01/28 06:33:42;;;;;;;3.03;1.03;;;14.50;92.70;;;;;;4205059;28;20044;-74
2021/01/28 06:36:04;;;;;;;2.70;1.00;;;14.30;92.90;;;;;;4200723;28;20474;-74
2021/01/28 06:38:27;;;;;;;3.40;1.00;;;14.30;93.40;;;;;;4198163;28;20048;-76
2021/01/28 06:40:31;;;;;;;8.70;1.13;;;13.70;94.80;;;;;;4201972;28;20049;-73
2021/01/28 06:42:39;;;;;;;1.73;0.65;;;13.70;95.10;;;;;;4183375;28;20044;-75
2021/01/28 06:44:48;;;;;;;2.80;0.93;;;13.80;94.60;;;;;;4200434;28;20056;-75
2021/01/28 06:46:56;;;;;;;3.03;0.82;;;14.40;92.60;;;;;;4199487;28;20447;-75
2021/01/28 06:49:10;;;;;;;3.35;0.88;;;14.30;92.60;;;;;;4198283;28;20049;-75
2021/01/28 06:51:24;;;;;;;3.28;1.20;;;14.30;93.00;;;;;;4198554;28;20056;-72
2021/01/28 06:53:39;;;;;;;3.08;0.90;;;14.50;92.40;;;;;;4197682;28;20045;-73
2021/01/28 06:55:46;;;;;;;2.70;0.98;;;14.90;91.30;;;;;;4195646;28;20045;-75
2021/01/28 06:58:01;;;;;;;1.98;0.63;;;14.70;92.60;;;;;;4196243;28;20466;-72
2021/01/28 07:00:07;;;;;;;2.33;0.80;;;14.60;92.00;;;;;;4196106;28;20052;-73
2021/01/28 07:02:15;;;;;;;2.60;0.70;;;14.50;93.10;;;;;;4196004;28;20059;-72
2021/01/28 07:04:23;;;;;;;3.25;0.80;;;14.50;93.30;;;;;;4195854;28;20068;-72
2021/01/28 07:06:31;;;;;;;2.03;0.60;;;14.50;97.30;;;;;;4196020;28;20056;-73
2021/01/28 07:08:55;;;;;;;1.17;0.65;;;14.60;93.20;;;;;;4195778;28;20048;-73
2021/01/28 07:10:57;;;;;;;2.67;0.90;;;14.40;93.20;;;;;;4195860;28;20044;-72
2021/01/28 07:12:59;;;;;;;2.58;0.70;;;13.90;95.30;;;;;;4196664;28;20052;-72
2021/01/28 07:15:03;;;;;;;3.70;0.70;;;13.90;95.10;;;;;;4196562;28;20102;-72
2021/01/28 07:17:13;;;;;;;2.15;0.82;;;13.90;95.20;;;;;;4196053;28;20485;-74
2021/01/28 07:19:21;;;;;;;1.90;0.60;;;14.30;93.50;;;;;;4195619;28;20040;-74
2021/01/28 07:21:32;;;;;;;2.78;0.52;;;14.80;92.40;;;;;;4195899;28;20447;-73
2021/01/28 07:23:37;;;;;;;2.50;0.98;;;14.80;92.90;;;;;;4177658;28;20048;-72
2021/01/28 07:25:39;;;;;;;1.38;0.52;;;14.70;93.00;;;;;;4195890;28;20596;-72
2021/01/28 07:27:57;;;;;;;1.95;0.47;;;14.70;92.20;;;;;;4197383;28;20052;-74
2021/01/28 07:29:58;;;;;;;0.82;0.57;;;14.70;92.10;;;;;;4212599;28;20060;-73
2021/01/28 07:32:03;;;;;;;0.82;0.30;;;14.40;94.40;;;;;;4212632;28;20488;-72
2021/01/28 07:34:08;;;;;;;3.22;0.47;;;14.10;94.60;;;;;;4198033;28;20056;-74
2021/01/28 07:36:41;;;;;;;3.15;0.40;;;14.20;94.10;;;;;;4196071;28;20049;-75
2021/01/28 07:38:52;;;;;;;1.60;0.60;;;13.90;94.00;;;;;;4196199;28;20481;-72
2021/01/28 07:40:54;;;;;;;2.97;0.68;;;13.90;94.80;;;;;;4196244;28;20455;-73
2021/01/28 07:43:02;;;;;;;3.95;1.65;;;14.10;94.70;;;;;;4196464;28;20048;-72
2021/01/28 07:45:26;;;;;;;3.30;1.30;;;14.30;93.60;;;;;;4196904;28;20045;-74
2021/01/28 07:47:47;;;;;;;2.47;0.80;;;14.20;94.20;;;;;;4196449;28;20080;-72
2021/01/28 07:50:16;;;;;;;1.33;0.77;;;14.50;93.80;;;;;;4196641;28;20364;-72
2021/01/28 07:52:40;;;;;;;2.05;0.80;;;14.70;93.10;;;;;;4195491;28;20044;-72
2021/01/28 07:54:46;;;;;;;1.92;0.82;;;15.30;89.90;;;;;;4195753;28;20102;-74
2021/01/28 07:56:50;;;;;;;0.45;0.40;;;14.90;92.60;;;;;;4195629;28;20500;-72
2021/01/28 07:58:52;;;;;;;4.97;0.80;;;14.80;93.00;;;;;;4195449;28;20060;-74
2021/01/28 08:00:55;;;;;;;2.08;0.77;;;14.50;93.70;;;;;;4195780;28;20177;-72
2021/01/28 08:03:04;;;;;;;1.77;0.95;;;14.70;93.10;;;;;;4195738;28;20098;-73
2021/01/28 08:05:10;;;;;;;1.25;1.00;;;14.80;92.40;;;;;;4195369;28;20078;-72
2021/01/28 08:07:15;;;;;;;0.60;0.50;;;14.50;93.40;;;;;;4196050;28;20047;-72
2021/01/28 08:09:17;;;;;;;;;;;13.90;94.50;;;;;;4199256;28;20127;-72
2021/01/28 08:11:21;;;;;;;1.05;0.63;;;14.10;94.40;;;;;;4198735;28;19981;-72
2021/01/28 08:13:27;;;;;;;3.13;0.73;;;14.40;93.30;;;;;;4180546;28;20048;-72
2021/01/28 08:15:34;;;;;;;2.40;0.90;;;14.60;93.30;;;;;;4198598;28;20105;-72
2021/01/28 08:17:35;;;;;;;0.75;0.70;;;14.90;92.50;;;;;;4198802;28;20044;-72
2021/01/28 08:19:37;;;;;;;2.53;1.30;;;15.00;91.80;;;;;;4198675;28;20058;-72
2021/01/28 08:21:39;;;;;;;9.23;0.85;;;14.90;92.90;;;;;;4199099;28;20052;-72
2021/01/28 08:23:43;;;;;;;4.18;1.00;;;14.90;92.40;;;;;;4199253;28;20048;-72
2021/01/28 08:25:56;;;;;;;2.80;1.20;;;14.90;91.70;;;;;;4188158;28;20053;-73
2021/01/28 08:28:13;;;;;;;0.45;0.40;;;14.90;92.60;;;;;;4193705;28;20113;-72
2021/01/28 08:30:18;;;;;;;3.08;0.70;;;15.00;92.40;;;;;;4215264;28;20097;-73
2021/01/28 08:32:26;;;;;;;0.98;0.70;;;15.00;92.20;;;;;;4214967;28;20044;-74
2021/01/28 08:34:32;;;;;;;1.38;0.80;;;14.80;93.00;;;;;;4181814;28;20231;-74
2021/01/28 08:36:42;;;;;;;3.67;0.70;;;14.80;92.90;;;;;;4182099;28;20474;-74
2021/01/28 08:38:43;;;;;;;0.52;0.50;;;15.10;92.10;;;;;;4181967;28;20049;-73
2021/01/28 08:40:55;;;;;;;2.47;0.50;;;15.30;91.40;;;;;;4182759;28;20107;-73
2021/01/28 08:43:07;;;;;;;1.77;0.60;;;15.30;91.20;;;;;;4182331;28;20045;-74
2021/01/28 08:45:15;;;;;;;1.77;0.75;;;15.10;91.90;;;;;;4182350;28;20037;-74
2021/01/28 08:47:20;;;;;;;2.10;1.35;;;15.00;92.60;;;;;;4182378;28;20123;-75
2021/01/28 08:49:23;;;;;;;2.38;0.90;;;15.10;93.00;;;;;;4181771;28;20052;-74
2021/01/28 08:51:26;;;;;;;1.20;1.10;;;14.80;93.10;;;;;;4181374;28;20538;-74
2021/01/28 08:53:28;;;;;;;0.88;0.60;;;15.10;91.80;;;;;;4181240;28;20493;-74
2021/01/28 08:55:34;;;;;;;1.60;1.00;;;15.40;91.70;;;;;;4181560;28;20387;-74
2021/01/28 08:57:36;;;;;;;1.75;0.90;;;15.50;91.60;;;;;;4181490;28;20041;-75
2021/01/28 08:59:44;;;;;;;2.90;1.02;;;15.50;91.20;;;;;;4181333;28;20057;-74
2021/01/28 09:01:49;;;;;;;3.40;0.52;;;15.30;92.10;;;;;;4187288;28;20457;-74
2021/01/28 09:03:59;;;;;;;1.35;0.43;;;15.20;92.10;;;;;;4198624;28;20059;-73
2021/01/28 09:06:02;;;;;;;4.10;1.35;;;15.70;90.60;;;;;;4199076;28;20469;-77
2021/01/28 09:08:06;;;;;;;2.92;1.10;;;16.40;87.90;;;;;;4200146;28;20094;-78
2021/01/28 09:10:09;;;;;;;13.85;1.23;;;16.20;90.20;;;;;;4200705;28;20044;-74
2021/01/28 09:12:22;;;;;;;39.63;3.05;;;16.80;84.50;;;;;;4200327;28;20063;-76
2021/01/28 09:14:29;;;;;;;66.88;4.72;;;17.00;83.10;;;;;;4198422;28;20044;-73
2021/01/28 09:16:33;;;;;;;39.60;3.15;;;17.10;83.20;;;;;;4199185;28;20443;-75
2021/01/28 09:18:39;;;;;;;32.25;1.88;;;17.50;82.00;;;;;;4197352;28;20528;-73
2021/01/28 09:20:42;;;;;;;19.75;1.73;;;17.20;82.80;;;;;;4196808;28;20443;-73
2021/01/28 09:22:43;;;;;;;12.65;1.30;;;17.20;83.10;;;;;;4202578;28;20048;-72
2021/01/28 09:24:47;;;;;;;11.00;1.27;;;17.30;84.60;;;;;;4203801;28;20056;-77
2021/01/28 09:27:06;;;;;;;19.27;1.58;;;17.20;85.40;;;;;;4203978;28;20059;-74
2021/01/28 09:29:09;;;;;;;17.83;1.23;;;17.70;84.20;;;;;;4204845;28;20404;-74
2021/01/28 09:31:22;;;;;;;14.57;1.47;;;17.40;85.00;;;;;;4202281;28;20044;-74
2021/01/28 09:33:36;;;;;;;7.43;1.13;;;17.70;81.40;;;;;;4201235;28;20986;-73
2021/01/28 09:36:03;;;;;;;4.50;1.73;;;16.60;86.30;;;;;;4198132;28;20097;-73
2021/01/28 09:38:11;;;;;;;4.30;0.77;;;17.30;83.60;;;;;;4196539;28;20284;-71
2021/01/28 09:40:26;;;;;;;3.00;0.80;;;17.40;83.70;;;;;;4198374;28;20068;-73
2021/01/28 09:42:30;;;;;;;2.92;0.70;;;17.50;83.20;;;;;;4196309;28;20157;-71
2021/01/28 09:44:36;;;;;;;4.03;1.15;;;17.60;83.10;;;;;;4194464;28;20076;-71
2021/01/28 09:46:38;;;;;;;4.75;0.77;;;17.70;81.60;;;;;;4195450;28;20056;-71
2021/01/28 09:48:42;;;;;;;4.03;0.90;;;17.90;80.80;;;;;;4192451;28;20057;-71
2021/01/28 09:50:45;;;;;;;2.40;0.88;;;17.10;85.20;;;;;;4195454;28;20048;-71
2021/01/28 09:52:48;;;;;;;2.20;0.90;;;17.20;83.60;;;;;;4195342;28;20390;-71
2021/01/28 09:54:51;;;;;;;1.85;0.50;;;17.40;83.70;;;;;;4195537;28;20048;-71
2021/01/28 09:56:52;;;;;;;11.77;1.02;;;17.70;82.20;;;;;;4192819;28;20040;-71
2021/01/28 09:58:54;;;;;;;1.52;0.50;;;17.50;83.60;;;;;;4195645;28;20036;-72
2021/01/28 10:00:56;;;;;;;2.53;0.40;;;17.60;82.40;;;;;;4195303;28;20036;-72
2021/01/28 10:03:00;;;;;;;0.82;0.50;;;17.70;81.80;;;;;;4195755;28;20409;-73
2021/01/28 10:05:05;;;;;;;;;;;18.10;80.40;;;;;;4193209;28;20044;-70
2021/01/28 10:07:06;;;;;;;1.45;0.55;;;18.20;80.30;;;;;;4195691;28;20481;-72
2021/01/28 10:09:08;;;;;;;1.45;0.45;;;18.20;80.40;;;;;;4195947;28;20040;-70
2021/01/28 10:11:10;;;;;;;4.57;0.88;;;17.80;81.00;;;;;;4195320;28;20257;-71
2021/01/28 10:13:14;;;;;;;3.50;0.77;;;18.10;80.20;;;;;;4195261;28;20082;-73
2021/01/28 10:15:16;;;;;;;2.17;0.63;;;18.40;79.80;;;;;;4196244;28;20113;-71
2021/01/28 10:17:18;;;;;;;2.20;0.82;;;18.50;78.60;;;;;;4196590;28;20496;-71
2021/01/28 10:19:20;;;;;;;2.40;0.70;;;18.40;78.80;;;;;;4196727;28;20051;-72
2021/01/28 10:21:24;;;;;;;2.53;0.60;;;18.50;79.00;;;;;;4196606;28;20585;-72
2021/01/28 10:23:26;;;;;;;3.13;1.08;;;18.10;80.80;;;;;;4193787;28;20110;-70
2021/01/28 10:25:29;;;;;;;1.75;0.77;;;18.00;81.50;;;;;;4197572;28;20048;-72
2021/01/28 10:27:30;;;;;;;3.22;0.70;;;18.10;81.00;;;;;;4198293;28;20047;-73
2021/01/28 10:29:32;;;;;;;2.90;0.65;;;18.10;79.30;;;;;;4199529;28;20044;-71
2021/01/28 10:31:34;;;;;;;1.90;0.85;;;17.90;80.70;;;;;;4196916;28;20041;-69
2021/01/28 10:33:38;;;;;;;4.35;0.85;;;18.00;80.60;;;;;;4192934;28;20155;-70
2021/01/28 10:35:43;;;;;;;3.70;0.73;;;18.00;81.70;;;;;;4195569;28;20117;-70
2021/01/28 10:37:47;;;;;;;3.83;0.70;;;18.40;80.40;;;;;;4192094;28;20044;-70
2021/01/28 10:39:50;;;;;;;0.70;0.45;;;18.20;80.20;;;;;;4202640;28;20052;-70
2021/01/28 10:41:52;;;;;;;4.50;0.75;;;18.50;79.20;;;;;;4211662;28;20506;-71
2021/01/28 10:43:56;;;;;;;4.55;0.93;;;18.80;78.20;;;;;;4199684;28;20048;-71
2021/01/28 10:46:01;;;;;;;2.35;1.08;;;18.30;79.20;;;;;;4195362;28;20128;-71
2021/01/28 10:48:06;;;;;;;3.13;0.95;;;18.50;79.20;;;;;;4194369;28;20122;-70
2021/01/28 10:50:10;;;;;;;2.70;1.30;;;18.30;79.60;;;;;;4195394;28;20044;-71
2021/01/28 10:52:13;;;;;;;2.13;0.75;;;18.30;79.40;;;;;;4196740;28;20070;-70
2021/01/28 10:54:17;;;;;;;4.40;1.00;;;18.10;79.90;;;;;;4195377;28;20087;-71
2021/01/28 10:56:20;;;;;;;3.78;1.35;;;18.70;78.20;;;;;;4194007;28;20049;-70